Weather observations for the past three days for
Beverly, Beverly Municipal Airport
Metric (Imperial)
Date Time (edt) Wind (kph) Vis. (km) Weather Sky Cond. Temperature (ºC) Relative Humidity Wind Chill (°C) Heat Index (°C) Pressure Precipitation (cm)
Air Dwpt 6 hour altimeter (cm) sea level (mb) 1 hr 3 hr 6 hr
Max. Min.
02 12:53 S 7 16.09 Overcast FEW049 OVC070 11.1 7.2 77% 75.87 1011.0
02 11:53 S 9 16.09 Mostly Cloudy BKN085 BKN110 11.7 6.1 69% 75.9 1011.5
02 10:53 SE 9 16.09 Overcast OVC070 10 6.7 80% 9 75.92 1011.7 0.03 0.05
02 09:53 Calm 12.87 Light Rain OVC049 8.3 5 80% 75.97 1012.6 0.03
02 08:53 NW 13 16.09 Light Rain SCT060 BKN075 OVC095 8.3 4.4 77% 6 75.95 1012.2
02 07:53 W 9 16.09 Overcast SCT060 OVC085 9.4 6.1 9.4 5 80% 8 75.92 1011.5
02 06:53 Calm 16.09 Mostly Cloudy SCT070 BKN090 BKN100 7.8 5.6 86% 75.87 1011.0
02 05:53 Calm 16.09 Overcast FEW055 SCT075 OVC110 7.8 3.9 77% 75.87 1011.0
02 04:53 Calm 16.09 Mostly Cloudy SCT070 BKN090 7.8 3.3 73% 75.84 1010.5
02 03:53 SW 6 16.09 Mostly Cloudy SCT080 BKN110 7.8 3.9 77% 75.84 1010.5
02 02:53 SE 6 16.09 Partly Cloudy SCT085 6.7 4.4 85% 75.84 1010.8
02 01:53 NE 6 16.09 A Few Clouds FEW080 6.1 3.9 13.9 5 86% 75.87 1011.0
02 00:53 Calm 16.09 A Few Clouds FEW095 8.3 3.9 74% 75.9 1011.4
01 23:53 E 6 16.09 Mostly Cloudy BKN090 8.3 2.2 66% 75.9 1011.5
01 22:53 E 6 16.09 A Few Clouds FEW100 7.8 1.1 63% 75.87 1011.2
01 21:53 Calm 16.09 Fair CLR 8.3 -1.7 50% 75.87 1011.0
01 20:53 Calm 16.09 Fair CLR 10 -2.2 43% 75.84 1010.7
01 19:53 N 7 16.09 Fair CLR 13.9 -3.9 16.7 13.3 29% 75.77 1009.5
01 18:53 NW 17 16.09 Fair CLR 15.6 -2.8 28% 75.69 1008.8
01 17:53 NW 20 G 37 16.09 Fair CLR 16.1 -3.3 26% 75.67 1008.5
01 16:53 W 19 G 39 16.09 Fair CLR 16.7 -2.8 26% 75.62 1007.7
01 15:53 W 22 G 41 16.09 Fair CLR 16.1 -2.2 29% 75.62 1007.7
01 14:53 W 19 G 44 16.09 A Few Clouds FEW070 16.1 -0.6 32% 75.64 1008.1
01 13:53 NW 15 G 35 16.09 Fair CLR 15 -0.6 15 8.3 35% 75.67 1008.3
01 12:53 W 17 G 44 16.09 Fair CLR 13.9 -0.6 37% 75.69 1008.5
01 11:53 NW 22 G 31 16.09 Mostly Cloudy BKN050 12.2 0 43% 75.72 1009.1
01 10:53 NW 22 G 39 16.09 A Few Clouds FEW050 12.8 1.1 45% 75.74 1009.4
01 09:53 NW 26 G 48 16.09 Fair CLR 11.7 1.1 48% 75.72 1009.1
01 08:53 NW 15 G 31 16.09 Fair CLR 10.6 2.2 56% 75.72 1009.1
01 07:53 NW 20 16.09 Fair CLR 8.3 2.2 10 6.7 66% 5 75.69 1008.9
01 06:53 NW 13 16.09 Fair CLR 7.8 2.8 71% 6 75.67 1008.5
01 05:53 W 11 16.09 Overcast OVC050 7.2 3.3 77% 5 75.64 1008.2
01 04:53 W 11 16.09 Mostly Cloudy BKN050 7.2 3.9 80% 5 75.62 1007.8
01 03:53 NW 9 16.09 Overcast BKN047 OVC055 8.9 5 77% 8 75.59 1007.3
01 02:53 NW 17 16.09 Overcast FEW014 BKN043 OVC055 8.9 6.1 83% 7 75.57 1006.9
01 01:53 NW 9 16.09 Overcast FEW035 OVC050 9.4 8.3 10.6 8.3 93% 8 75.57 1006.9
01 00:53 Calm 16.09 Overcast FEW022 SCT027 OVC041 8.9 8.3 96% 75.54 1006.6
30 23:53 Calm 16.09 Overcast BKN012 BKN017 OVC025 8.3 8.3 100% 75.51 1006.4
30 22:53 Calm 16.09 Overcast BKN015 OVC019 8.9 8.3 96% 75.51 1006.3
30 21:53 NE 6 16.09 Overcast OVC017 9.4 8.3 93% 75.54 1006.6
30 20:53 Calm 16.09 Overcast BKN025 BKN034 OVC048 9.4 8.3 93% 75.51 1006.3
30 19:53 W 6 16.09 Overcast OVC047 11.1 8.3 12.2 10 83% 75.46 1005.8
30 18:53 NW 13 16.09 Overcast BKN025 OVC036 11.7 8.3 80% 75.44 1005.5
30 17:53 W 7 16.09 Overcast FEW015 BKN023 OVC055 11.7 8.9 83% 75.41 1005.1
30 16:53 NW 7 16.09 Overcast SCT013 OVC021 11.1 8.9 86% 75.41 1005.0
30 15:53 W 9 16.09 Overcast OVC011 11.1 9.4 89% 75.44 1005.2
30 14:53 Calm 16.09 Overcast BKN012 OVC016 11.1 8.9 86% 75.44 1005.4
30 13:53 Calm 16.09 Overcast BKN005 BKN041 OVC055 10 8.9 10.6 7.8 93% 75.51 1006.4 0.1 0.3
30 12:53 W 6 3.22 Light Rain Fog/Mist OVC006 10 8.9 93% 75.54 1006.6 0.03
30 11:53 NW 6 4.83 Light Rain Fog/Mist OVC006 9.4 8.3 93% 75.51 1006.3 0.03
30 10:53 Calm 9.66 Light Rain Fog/Mist BKN006 BKN043 OVC050 8.9 8.3 96% 75.59 1007.2 0.13 0.15
30 09:53 Calm 8.05 Light Rain Fog/Mist OVC006 8.9 7.8 93% 75.62 1007.8 0.03
30 08:53 NW 6 16.09 Overcast OVC005 8.3 7.8 97% 75.62 1007.8
30 07:53 Calm 16.09 Overcast OVC005 7.8 6.7 7.8 6.7 93% 75.64 1008.1
30 06:53 N 11 16.09 Light Rain BKN005 OVC080 7.2 6.7 97% 5 75.62 1007.6
30 05:53 N 7 4.83 Fog/Mist OVC003 6.7 6.7 100% 6 75.62 1007.6
30 04:53 N 7 12.87 Overcast BKN004 BKN014 OVC019 7.2 6.7 97% 6 75.64 1008.1
30 03:53 N 6 4.02 Fog/Mist SCT003 BKN009 OVC018 7.2 6.7 97% 75.69 1008.9
30 02:53 N 6 3.22 Fog/Mist OVC006 7.2 7.2 100% 75.74 1009.3
30 01:53 N 7 4.02 Fog/Mist OVC005 7.2 7.2 7.2 6.7 100% 6 75.74 1009.5 0.03 0.03
30 00:53 N 6 1.61 Fog/Mist OVC002 7.2 7.2 100% 75.79 1010.3
29 23:53 N 7 4.02 Light Rain Fog/Mist OVC005 7.2 6.7 97% 6 75.84 1010.9
29 22:53 NE 7 3.22 Fog/Mist OVC004 7.2 6.7 97% 6 75.92 1011.8
29 21:53 NE 7 4.02 Fog/Mist OVC003 6.7 6.7 100% 6 76 1012.7
29 20:53 NE 7 8.05 Fog/Mist OVC004 6.7 6.1 96% 6 76 1012.8
29 19:53 NE 11 4.02 Fog/Mist OVC005 6.7 6.1 9.4 6.7 96% 5 76.02 1013.2
29 18:53 NE 15 14.48 Overcast OVC007 7.2 5.6 90% 5 76.02 1013.2
29 17:53 NE 13 16.09 Overcast OVC008 7.8 5.6 86% 6 76.05 1013.6
29 16:53 NE 11 16.09 Overcast OVC011 8.3 5.6 83% 7 76.07 1013.8
29 15:53 NE 17 16.09 Overcast OVC012 8.3 5.6 83% 6 76.1 1014.3
29 14:53 N 13 16.09 Overcast OVC013 9.4 5.6 77% 8 76.17 1015.2
29 13:53 N 13 G 26 16.09 Overcast OVC011 8.9 5.6 10.6 7.2 80% 7 76.2 1015.6
Date Time (edt) Wind (kph) Vis. (km) Weather Sky Cond. Air Dwpt Max. Min. Relative Humidity Wind Chill (°C) Heat Index (°C) altimeter (cm) sea level (mb) 1 hr 3 hr 6 hr
6 hour
Temperature (ºC) Pressure Precipitation (cm)